sensor_id;sensor_type;location;lat;lon;timestamp;pressure;altitude;pressure_sealevel;temperature;humidity
76553;BME280;65395;53.168;18.156;2023-11-19T00:00:30;101680.34;;;0.38;83.17
76553;BME280;65395;53.168;18.156;2023-11-19T00:03:16;101676.98;;;0.28;83.57
76553;BME280;65395;53.168;18.156;2023-11-19T00:05:44;101668.36;;;0.21;83.36
76553;BME280;65395;53.168;18.156;2023-11-19T00:08:11;101668.52;;;0.13;83.57
76553;BME280;65395;53.168;18.156;2023-11-19T00:10:38;101660.80;;;0.07;83.76
76553;BME280;65395;53.168;18.156;2023-11-19T00:13:05;101658.52;;;-0.01;83.76
76553;BME280;65395;53.168;18.156;2023-11-19T00:15:33;101654.27;;;-0.08;83.98
76553;BME280;65395;53.168;18.156;2023-11-19T00:18:00;101648.50;;;-0.14;84.02
76553;BME280;65395;53.168;18.156;2023-11-19T00:20:32;101649.35;;;-0.21;84.17
76553;BME280;65395;53.168;18.156;2023-11-19T00:22:58;101641.23;;;-0.28;84.15
76553;BME280;65395;53.168;18.156;2023-11-19T00:25:25;101641.52;;;-0.36;84.14
76553;BME280;65395;53.168;18.156;2023-11-19T00:27:52;101637.77;;;-0.43;84.33
76553;BME280;65395;53.168;18.156;2023-11-19T00:30:20;101638.82;;;-0.51;84.20
76553;BME280;65395;53.168;18.156;2023-11-19T00:32:47;101645.54;;;-0.58;84.44
76553;BME280;65395;53.168;18.156;2023-11-19T00:35:13;101646.33;;;-0.63;84.51
76553;BME280;65395;53.168;18.156;2023-11-19T00:37:40;101639.70;;;-0.67;84.78
76553;BME280;65395;53.168;18.156;2023-11-19T00:40:09;101635.65;;;-0.69;84.89
76553;BME280;65395;53.168;18.156;2023-11-19T00:42:37;101634.55;;;-0.71;84.95
76553;BME280;65395;53.168;18.156;2023-11-19T00:45:05;101631.02;;;-0.75;84.95
76553;BME280;65395;53.168;18.156;2023-11-19T00:47:36;101624.91;;;-0.78;84.96
76553;BME280;65395;53.168;18.156;2023-11-19T00:50:03;101619.74;;;-0.80;85.13
76553;BME280;65395;53.168;18.156;2023-11-19T00:52:31;101618.52;;;-0.83;85.01
76553;BME280;65395;53.168;18.156;2023-11-19T00:54:58;101609.93;;;-0.86;85.48
76553;BME280;65395;53.168;18.156;2023-11-19T00:57:25;101601.84;;;-0.88;85.47
76553;BME280;65395;53.168;18.156;2023-11-19T00:59:53;101596.31;;;-0.88;85.73
76553;BME280;65395;53.168;18.156;2023-11-19T01:02:20;101590.86;;;-0.87;85.88
76553;BME280;65395;53.168;18.156;2023-11-19T01:04:47;101588.47;;;-0.87;85.69
76553;BME280;65395;53.168;18.156;2023-11-19T01:07:14;101584.36;;;-0.89;85.61
76553;BME280;65395;53.168;18.156;2023-11-19T01:09:42;101584.86;;;-0.91;85.57
76553;BME280;65395;53.168;18.156;2023-11-19T01:12:09;101581.52;;;-0.95;85.54
76553;BME280;65395;53.168;18.156;2023-11-19T01:14:38;101581.45;;;-0.98;85.56
76553;BME280;65395;53.168;18.156;2023-11-19T01:17:05;101582.09;;;-1.02;85.73
76553;BME280;65395;53.168;18.156;2023-11-19T01:19:32;101576.69;;;-1.06;85.82
76553;BME280;65395;53.168;18.156;2023-11-19T01:21:59;101568.54;;;-1.10;86.05
76553;BME280;65395;53.168;18.156;2023-11-19T01:24:26;101565.30;;;-1.11;86.20
76553;BME280;65395;53.168;18.156;2023-11-19T01:26:55;101556.42;;;-1.11;86.29
76553;BME280;65395;53.168;18.156;2023-11-19T01:29:24;101552.16;;;-1.11;86.34
76553;BME280;65395;53.168;18.156;2023-11-19T01:31:51;101556.69;;;-1.13;86.26
76553;BME280;65395;53.168;18.156;2023-11-19T01:34:18;101561.53;;;-1.15;86.40
76553;BME280;65395;53.168;18.156;2023-11-19T01:36:46;101554.62;;;-1.17;86.19
76553;BME280;65395;53.168;18.156;2023-11-19T01:39:15;101555.02;;;-1.21;86.14
76553;BME280;65395;53.168;18.156;2023-11-19T01:41:43;101563.31;;;-1.23;86.23
76553;BME280;65395;53.168;18.156;2023-11-19T01:44:10;101551.47;;;-1.27;86.15
76553;BME280;65395;53.168;18.156;2023-11-19T01:46:40;101541.85;;;-1.30;86.30
76553;BME280;65395;53.168;18.156;2023-11-19T01:49:08;101539.81;;;-1.33;86.25
76553;BME280;65395;53.168;18.156;2023-11-19T01:51:36;101532.14;;;-1.36;86.29
76553;BME280;65395;53.168;18.156;2023-11-19T01:54:03;101512.66;;;-1.42;86.21
76553;BME280;65395;53.168;18.156;2023-11-19T01:56:30;101509.20;;;-1.47;86.28
76553;BME280;65395;53.168;18.156;2023-11-19T01:58:58;101500.40;;;-1.51;86.30
76553;BME280;65395;53.168;18.156;2023-11-19T02:01:26;101493.05;;;-1.55;86.18
76553;BME280;65395;53.168;18.156;2023-11-19T02:03:53;101485.94;;;-1.59;86.32
76553;BME280;65395;53.168;18.156;2023-11-19T02:06:21;101480.92;;;-1.63;86.35
76553;BME280;65395;53.168;18.156;2023-11-19T02:08:48;101477.14;;;-1.67;86.40
76553;BME280;65395;53.168;18.156;2023-11-19T02:11:15;101475.45;;;-1.70;86.43
76553;BME280;65395;53.168;18.156;2023-11-19T02:13:42;101472.27;;;-1.74;86.56
76553;BME280;65395;53.168;18.156;2023-11-19T02:16:10;101460.08;;;-1.78;86.59
76553;BME280;65395;53.168;18.156;2023-11-19T02:18:37;101460.02;;;-1.81;86.67
76553;BME280;65395;53.168;18.156;2023-11-19T02:21:05;101462.00;;;-1.83;86.84
76553;BME280;65395;53.168;18.156;2023-11-19T02:23:32;101465.57;;;-1.84;87.05
76553;BME280;65395;53.168;18.156;2023-11-19T02:26:15;101463.33;;;-1.85;86.90
76553;BME280;65395;53.168;18.156;2023-11-19T02:28:45;101457.48;;;-1.87;87.02
76553;BME280;65395;53.168;18.156;2023-11-19T02:31:12;101446.66;;;-1.88;87.10
76553;BME280;65395;53.168;18.156;2023-11-19T02:33:39;101438.89;;;-1.89;87.05
76553;BME280;65395;53.168;18.156;2023-11-19T02:36:07;101429.70;;;-1.89;87.24
76553;BME280;65395;53.168;18.156;2023-11-19T02:38:35;101423.98;;;-1.89;87.42
76553;BME280;65395;53.168;18.156;2023-11-19T02:41:04;101425.32;;;-1.87;87.56
76553;BME280;65395;53.168;18.156;2023-11-19T02:43:33;101426.37;;;-1.86;87.52
76553;BME280;65395;53.168;18.156;2023-11-19T02:46:02;101416.74;;;-1.85;87.59
76553;BME280;65395;53.168;18.156;2023-11-19T02:48:29;101404.73;;;-1.82;87.70
76553;BME280;65395;53.168;18.156;2023-11-19T02:50:57;101397.37;;;-1.80;87.78
76553;BME280;65395;53.168;18.156;2023-11-19T02:53:25;101392.70;;;-1.77;87.75
76553;BME280;65395;53.168;18.156;2023-11-19T02:55:54;101391.77;;;-1.73;87.80
76553;BME280;65395;53.168;18.156;2023-11-19T02:58:27;101389.61;;;-1.70;87.87
76553;BME280;65395;53.168;18.156;2023-11-19T03:00:55;101388.73;;;-1.66;87.93
76553;BME280;65395;53.168;18.156;2023-11-19T03:03:27;101381.75;;;-1.59;88.03
76553;BME280;65395;53.168;18.156;2023-11-19T03:05:57;101371.06;;;-1.52;88.00
76553;BME280;65395;53.168;18.156;2023-11-19T03:08:24;101363.35;;;-1.46;88.07
76553;BME280;65395;53.168;18.156;2023-11-19T03:10:51;101356.36;;;-1.38;88.19
76553;BME280;65395;53.168;18.156;2023-11-19T03:13:18;101354.93;;;-1.31;88.06
76553;BME280;65395;53.168;18.156;2023-11-19T03:15:45;101358.40;;;-1.24;88.07
76553;BME280;65395;53.168;18.156;2023-11-19T03:18:12;101356.08;;;-1.20;87.96
76553;BME280;65395;53.168;18.156;2023-11-19T03:20:39;101351.24;;;-1.15;87.91
76553;BME280;65395;53.168;18.156;2023-11-19T03:23:06;101350.35;;;-1.11;87.93
76553;BME280;65395;53.168;18.156;2023-11-19T03:25:33;101346.74;;;-1.07;87.76
76553;BME280;65395;53.168;18.156;2023-11-19T03:28:02;101343.70;;;-1.05;87.65
76553;BME280;65395;53.168;18.156;2023-11-19T03:30:30;101330.30;;;-1.01;87.71
76553;BME280;65395;53.168;18.156;2023-11-19T03:32:57;101318.37;;;-0.98;87.72
76553;BME280;65395;53.168;18.156;2023-11-19T03:35:24;101305.64;;;-0.96;87.77
76553;BME280;65395;53.168;18.156;2023-11-19T03:37:51;101293.43;;;-0.94;87.62
76553;BME280;65395;53.168;18.156;2023-11-19T03:40:18;101288.83;;;-0.90;87.61
76553;BME280;65395;53.168;18.156;2023-11-19T03:42:46;101281.11;;;-0.88;87.57
76553;BME280;65395;53.168;18.156;2023-11-19T03:45:14;101277.61;;;-0.85;87.53
76553;BME280;65395;53.168;18.156;2023-11-19T03:47:43;101273.68;;;-0.82;87.50
76553;BME280;65395;53.168;18.156;2023-11-19T03:50:10;101269.73;;;-0.80;87.46
76553;BME280;65395;53.168;18.156;2023-11-19T03:52:36;101268.43;;;-0.78;87.53
76553;BME280;65395;53.168;18.156;2023-11-19T03:55:04;101269.67;;;-0.75;87.59
76553;BME280;65395;53.168;18.156;2023-11-19T03:57:32;101264.86;;;-0.72;87.52
76553;BME280;65395;53.168;18.156;2023-11-19T03:59:59;101264.12;;;-0.69;87.42
76553;BME280;65395;53.168;18.156;2023-11-19T04:02:26;101263.13;;;-0.67;87.48
76553;BME280;65395;53.168;18.156;2023-11-19T04:04:54;101260.41;;;-0.65;87.17
76553;BME280;65395;53.168;18.156;2023-11-19T04:07:21;101256.36;;;-0.63;87.32
76553;BME280;65395;53.168;18.156;2023-11-19T04:09:48;101252.27;;;-0.60;87.27
76553;BME280;65395;53.168;18.156;2023-11-19T04:12:15;101249.16;;;-0.58;87.10
76553;BME280;65395;53.168;18.156;2023-11-19T04:14:42;101245.26;;;-0.56;87.20
76553;BME280;65395;53.168;18.156;2023-11-19T04:17:09;101239.25;;;-0.53;87.02
76553;BME280;65395;53.168;18.156;2023-11-19T04:19:37;101241.08;;;-0.53;87.03
76553;BME280;65395;53.168;18.156;2023-11-19T04:22:05;101242.75;;;-0.51;87.02
76553;BME280;65395;53.168;18.156;2023-11-19T04:24:32;101232.41;;;-0.50;87.05
76553;BME280;65395;53.168;18.156;2023-11-19T04:26:59;101224.11;;;-0.48;87.00
76553;BME280;65395;53.168;18.156;2023-11-19T04:29:26;101219.73;;;-0.45;86.91
76553;BME280;65395;53.168;18.156;2023-11-19T04:31:54;101210.06;;;-0.42;86.92
76553;BME280;65395;53.168;18.156;2023-11-19T04:34:22;101206.23;;;-0.40;86.95
76553;BME280;65395;53.168;18.156;2023-11-19T04:36:49;101201.69;;;-0.37;86.88
76553;BME280;65395;53.168;18.156;2023-11-19T04:39:15;101204.88;;;-0.35;86.90
76553;BME280;65395;53.168;18.156;2023-11-19T04:41:46;101205.70;;;-0.32;86.97
76553;BME280;65395;53.168;18.156;2023-11-19T04:44:16;101201.65;;;-0.30;86.91
76553;BME280;65395;53.168;18.156;2023-11-19T04:46:44;101199.02;;;-0.28;86.77
76553;BME280;65395;53.168;18.156;2023-11-19T04:49:12;101188.69;;;-0.26;86.84
76553;BME280;65395;53.168;18.156;2023-11-19T04:51:40;101181.20;;;-0.24;86.86
76553;BME280;65395;53.168;18.156;2023-11-19T04:54:10;101177.01;;;-0.23;86.65
76553;BME280;65395;53.168;18.156;2023-11-19T04:56:37;101170.31;;;-0.22;86.65
76553;BME280;65395;53.168;18.156;2023-11-19T04:59:04;101162.11;;;-0.20;86.65
76553;BME280;65395;53.168;18.156;2023-11-19T05:01:32;101156.89;;;-0.19;86.57
76553;BME280;65395;53.168;18.156;2023-11-19T05:04:00;101151.66;;;-0.20;86.52
76553;BME280;65395;53.168;18.156;2023-11-19T05:06:29;101150.35;;;-0.21;86.35
76553;BME280;65395;53.168;18.156;2023-11-19T05:08:58;101144.61;;;-0.22;86.43
76553;BME280;65395;53.168;18.156;2023-11-19T05:11:25;101137.36;;;-0.23;86.44
76553;BME280;65395;53.168;18.156;2023-11-19T05:13:52;101130.78;;;-0.22;86.61
76553;BME280;65395;53.168;18.156;2023-11-19T05:16:19;101121.86;;;-0.21;86.59
76553;BME280;65395;53.168;18.156;2023-11-19T05:18:47;101114.72;;;-0.21;86.69
76553;BME280;65395;53.168;18.156;2023-11-19T05:21:14;101116.38;;;-0.19;86.74
76553;BME280;65395;53.168;18.156;2023-11-19T05:23:41;101116.89;;;-0.18;86.61
76553;BME280;65395;53.168;18.156;2023-11-19T05:26:08;101113.36;;;-0.15;86.79
76553;BME280;65395;53.168;18.156;2023-11-19T05:28:38;101107.32;;;-0.13;86.66
76553;BME280;65395;53.168;18.156;2023-11-19T05:31:06;101103.62;;;-0.10;86.78
76553;BME280;65395;53.168;18.156;2023-11-19T05:33:33;101093.40;;;-0.08;86.91
76553;BME280;65395;53.168;18.156;2023-11-19T05:35:59;101090.09;;;-0.07;86.64
76553;BME280;65395;53.168;18.156;2023-11-19T05:38:26;101084.86;;;-0.05;86.80
76553;BME280;65395;53.168;18.156;2023-11-19T05:40:53;101088.16;;;-0.03;86.68
76553;BME280;65395;53.168;18.156;2023-11-19T05:43:20;101082.05;;;-0.01;86.82
76553;BME280;65395;53.168;18.156;2023-11-19T05:45:47;101084.40;;;0.01;86.70
76553;BME280;65395;53.168;18.156;2023-11-19T05:48:14;101081.69;;;0.03;86.83
76553;BME280;65395;53.168;18.156;2023-11-19T05:50:41;101079.30;;;0.04;86.76
76553;BME280;65395;53.168;18.156;2023-11-19T05:53:08;101079.64;;;0.05;86.82
76553;BME280;65395;53.168;18.156;2023-11-19T05:55:36;101078.55;;;0.07;86.69
76553;BME280;65395;53.168;18.156;2023-11-19T05:58:12;101073.52;;;0.10;86.71
76553;BME280;65395;53.168;18.156;2023-11-19T06:00:39;101077.14;;;0.12;86.64
76553;BME280;65395;53.168;18.156;2023-11-19T06:03:07;101067.09;;;0.15;86.72
76553;BME280;65395;53.168;18.156;2023-11-19T06:05:34;101063.31;;;0.20;86.76
76553;BME280;65395;53.168;18.156;2023-11-19T06:08:01;101060.77;;;0.23;86.59
76553;BME280;65395;53.168;18.156;2023-11-19T06:10:28;101056.02;;;0.26;86.64
76553;BME280;65395;53.168;18.156;2023-11-19T06:12:59;101060.59;;;0.28;86.50
76553;BME280;65395;53.168;18.156;2023-11-19T06:15:26;101051.56;;;0.28;86.38
76553;BME280;65395;53.168;18.156;2023-11-19T06:17:54;101047.31;;;0.29;86.45
76553;BME280;65395;53.168;18.156;2023-11-19T06:20:21;101040.15;;;0.31;86.28
76553;BME280;65395;53.168;18.156;2023-11-19T06:22:48;101037.98;;;0.33;86.37
76553;BME280;65395;53.168;18.156;2023-11-19T06:25:15;101029.60;;;0.35;86.30
76553;BME280;65395;53.168;18.156;2023-11-19T06:27:42;101032.30;;;0.34;86.19
76553;BME280;65395;53.168;18.156;2023-11-19T06:30:09;101026.59;;;0.34;86.22
76553;BME280;65395;53.168;18.156;2023-11-19T06:32:37;101021.06;;;0.35;86.21
76553;BME280;65395;53.168;18.156;2023-11-19T06:35:04;101014.95;;;0.37;86.09
76553;BME280;65395;53.168;18.156;2023-11-19T06:37:31;101006.16;;;0.39;86.33
76553;BME280;65395;53.168;18.156;2023-11-19T06:39:58;100995.55;;;0.40;86.10
76553;BME280;65395;53.168;18.156;2023-11-19T06:42:25;100983.56;;;0.42;86.15
76553;BME280;65395;53.168;18.156;2023-11-19T06:44:52;100975.35;;;0.42;85.90
76553;BME280;65395;53.168;18.156;2023-11-19T06:47:19;100979.81;;;0.42;85.97
76553;BME280;65395;53.168;18.156;2023-11-19T06:49:46;100978.79;;;0.42;85.93
76553;BME280;65395;53.168;18.156;2023-11-19T06:52:13;100979.67;;;0.43;86.06
76553;BME280;65395;53.168;18.156;2023-11-19T06:54:40;100972.56;;;0.46;85.93
76553;BME280;65395;53.168;18.156;2023-11-19T06:57:07;100968.32;;;0.48;85.81
76553;BME280;65395;53.168;18.156;2023-11-19T06:59:35;100966.28;;;0.49;85.76
76553;BME280;65395;53.168;18.156;2023-11-19T07:02:03;100960.20;;;0.50;85.49
76553;BME280;65395;53.168;18.156;2023-11-19T07:04:31;100956.32;;;0.52;85.82
76553;BME280;65395;53.168;18.156;2023-11-19T07:06:59;100957.41;;;0.55;85.72
76553;BME280;65395;53.168;18.156;2023-11-19T07:09:27;100951.89;;;0.58;85.51
76553;BME280;65395;53.168;18.156;2023-11-19T07:11:54;100946.89;;;0.58;85.57
76553;BME280;65395;53.168;18.156;2023-11-19T07:14:21;100943.27;;;0.57;85.55
76553;BME280;65395;53.168;18.156;2023-11-19T07:16:50;100943.58;;;0.59;85.58
76553;BME280;65395;53.168;18.156;2023-11-19T07:19:17;100941.20;;;0.61;85.48
76553;BME280;65395;53.168;18.156;2023-11-19T07:21:43;100939.35;;;0.63;85.64
76553;BME280;65395;53.168;18.156;2023-11-19T07:24:11;100936.48;;;0.67;85.68
76553;BME280;65395;53.168;18.156;2023-11-19T07:26:43;100928.17;;;0.69;85.51
76553;BME280;65395;53.168;18.156;2023-11-19T07:29:10;100926.19;;;0.72;85.39
76553;BME280;65395;53.168;18.156;2023-11-19T07:31:37;100927.25;;;0.73;85.48
76553;BME280;65395;53.168;18.156;2023-11-19T07:34:04;100926.58;;;0.75;85.49
76553;BME280;65395;53.168;18.156;2023-11-19T07:36:33;100918.76;;;0.75;85.43
76553;BME280;65395;53.168;18.156;2023-11-19T07:38:59;100916.48;;;0.77;85.64
76553;BME280;65395;53.168;18.156;2023-11-19T07:41:26;100912.24;;;0.78;85.44
76553;BME280;65395;53.168;18.156;2023-11-19T07:43:54;100908.52;;;0.80;85.34
76553;BME280;65395;53.168;18.156;2023-11-19T07:46:21;100903.55;;;0.81;85.33
76553;BME280;65395;53.168;18.156;2023-11-19T07:48:48;100904.25;;;0.83;85.26
76553;BME280;65395;53.168;18.156;2023-11-19T07:51:15;100901.75;;;0.85;85.35
76553;BME280;65395;53.168;18.156;2023-11-19T07:53:43;100898.11;;;0.86;85.21
76553;BME280;65395;53.168;18.156;2023-11-19T07:56:10;100896.45;;;0.88;85.13
76553;BME280;65395;53.168;18.156;2023-11-19T07:58:37;100891.52;;;0.91;85.12
76553;BME280;65395;53.168;18.156;2023-11-19T08:01:05;100889.05;;;0.94;85.26
76553;BME280;65395;53.168;18.156;2023-11-19T08:03:32;100879.75;;;0.97;85.12
76553;BME280;65395;53.168;18.156;2023-11-19T08:06:00;100874.49;;;1.00;85.17
76553;BME280;65395;53.168;18.156;2023-11-19T08:08:28;100871.39;;;1.05;84.93
76553;BME280;65395;53.168;18.156;2023-11-19T08:10:56;100865.65;;;1.09;84.95
76553;BME280;65395;53.168;18.156;2023-11-19T08:13:24;100856.19;;;1.12;84.77
76553;BME280;65395;53.168;18.156;2023-11-19T08:15:51;100853.38;;;1.16;84.78
76553;BME280;65395;53.168;18.156;2023-11-19T08:18:18;100846.71;;;1.19;84.61
76553;BME280;65395;53.168;18.156;2023-11-19T08:20:45;100840.95;;;1.23;84.58
76553;BME280;65395;53.168;18.156;2023-11-19T08:23:14;100832.20;;;1.26;84.60
76553;BME280;65395;53.168;18.156;2023-11-19T08:25:40;100826.84;;;1.30;84.37
76553;BME280;65395;53.168;18.156;2023-11-19T08:28:07;100822.08;;;1.31;83.98
76553;BME280;65395;53.168;18.156;2023-11-19T08:30:34;100815.83;;;1.32;83.96
76553;BME280;65395;53.168;18.156;2023-11-19T08:33:01;100812.71;;;1.35;84.09
76553;BME280;65395;53.168;18.156;2023-11-19T08:35:29;100805.46;;;1.39;83.91
76553;BME280;65395;53.168;18.156;2023-11-19T08:37:56;100801.84;;;1.42;83.95
76553;BME280;65395;53.168;18.156;2023-11-19T08:40:23;100801.51;;;1.45;83.70
76553;BME280;65395;53.168;18.156;2023-11-19T08:42:52;100798.55;;;1.47;83.54
76553;BME280;65395;53.168;18.156;2023-11-19T08:45:19;100797.17;;;1.50;83.64
76553;BME280;65395;53.168;18.156;2023-11-19T08:47:46;100795.68;;;1.53;83.81
76553;BME280;65395;53.168;18.156;2023-11-19T08:50:13;100789.52;;;1.56;83.76
76553;BME280;65395;53.168;18.156;2023-11-19T08:52:39;100786.50;;;1.58;83.67
76553;BME280;65395;53.168;18.156;2023-11-19T08:55:07;100781.98;;;1.58;83.36
76553;BME280;65395;53.168;18.156;2023-11-19T08:57:33;100773.27;;;1.58;83.37
76553;BME280;65395;53.168;18.156;2023-11-19T09:00:00;100764.47;;;1.58;83.42
76553;BME280;65395;53.168;18.156;2023-11-19T09:02:27;100761.63;;;1.59;83.42
76553;BME280;65395;53.168;18.156;2023-11-19T09:04:54;100759.77;;;1.61;83.52
76553;BME280;65395;53.168;18.156;2023-11-19T09:07:21;100758.61;;;1.62;83.30
76553;BME280;65395;53.168;18.156;2023-11-19T09:09:48;100754.05;;;1.63;83.41
76553;BME280;65395;53.168;18.156;2023-11-19T09:12:15;100744.38;;;1.63;83.65
76553;BME280;65395;53.168;18.156;2023-11-19T09:14:42;100742.59;;;1.66;83.54
76553;BME280;65395;53.168;18.156;2023-11-19T09:17:12;100738.63;;;1.70;83.63
76553;BME280;65395;53.168;18.156;2023-11-19T09:19:39;100739.56;;;1.72;83.68
76553;BME280;65395;53.168;18.156;2023-11-19T09:22:06;100731.47;;;1.77;83.88
76553;BME280;65395;53.168;18.156;2023-11-19T09:24:32;100728.55;;;1.82;83.71
76553;BME280;65395;53.168;18.156;2023-11-19T09:26:59;100721.33;;;1.86;83.68
76553;BME280;65395;53.168;18.156;2023-11-19T09:29:26;100720.88;;;1.89;83.48
76553;BME280;65395;53.168;18.156;2023-11-19T09:31:53;100715.43;;;1.89;83.52
76553;BME280;65395;53.168;18.156;2023-11-19T09:34:20;100704.15;;;1.92;83.57
76553;BME280;65395;53.168;18.156;2023-11-19T09:36:47;100702.02;;;1.94;83.52
76553;BME280;65395;53.168;18.156;2023-11-19T09:39:14;100699.73;;;1.96;83.45
76553;BME280;65395;53.168;18.156;2023-11-19T09:41:44;100694.08;;;1.99;83.56
76553;BME280;65395;53.168;18.156;2023-11-19T09:44:12;100690.67;;;2.03;83.44
76553;BME280;65395;53.168;18.156;2023-11-19T09:46:41;100680.30;;;2.06;83.68
76553;BME280;65395;53.168;18.156;2023-11-19T09:49:08;100671.11;;;2.07;83.51
76553;BME280;65395;53.168;18.156;2023-11-19T09:51:36;100662.98;;;2.10;83.48
76553;BME280;65395;53.168;18.156;2023-11-19T09:54:03;100649.02;;;2.10;83.46
76553;BME280;65395;53.168;18.156;2023-11-19T09:56:33;100649.27;;;2.10;83.34
76553;BME280;65395;53.168;18.156;2023-11-19T09:59:00;100641.98;;;2.12;83.56
76553;BME280;65395;53.168;18.156;2023-11-19T10:01:27;100633.59;;;2.16;83.50
76553;BME280;65395;53.168;18.156;2023-11-19T10:03:55;100630.98;;;2.16;83.12
76553;BME280;65395;53.168;18.156;2023-11-19T10:06:22;100629.17;;;2.16;83.46
76553;BME280;65395;53.168;18.156;2023-11-19T10:08:51;100626.36;;;2.18;83.60
76553;BME280;65395;53.168;18.156;2023-11-19T10:11:18;100627.45;;;2.21;83.46
76553;BME280;65395;53.168;18.156;2023-11-19T10:13:45;100623.02;;;2.23;83.43
76553;BME280;65395;53.168;18.156;2023-11-19T10:16:14;100617.90;;;2.22;83.31
76553;BME280;65395;53.168;18.156;2023-11-19T10:18:46;100609.52;;;2.21;83.56
76553;BME280;65395;53.168;18.156;2023-11-19T10:21:13;100602.07;;;2.20;83.37
76553;BME280;65395;53.168;18.156;2023-11-19T10:23:54;100593.90;;;2.18;83.49
76553;BME280;65395;53.168;18.156;2023-11-19T10:26:23;100587.02;;;2.17;83.45
76553;BME280;65395;53.168;18.156;2023-11-19T10:28:50;100585.69;;;2.15;83.46
76553;BME280;65395;53.168;18.156;2023-11-19T10:31:18;100577.75;;;2.11;83.59
76553;BME280;65395;53.168;18.156;2023-11-19T10:33:45;100577.34;;;2.08;83.60
76553;BME280;65395;53.168;18.156;2023-11-19T10:36:13;100571.80;;;2.07;83.76
76553;BME280;65395;53.168;18.156;2023-11-19T10:38:41;100569.14;;;2.07;83.72
76553;BME280;65395;53.168;18.156;2023-11-19T10:41:28;100569.04;;;2.07;83.91
76553;BME280;65395;53.168;18.156;2023-11-19T10:43:55;100567.05;;;2.09;83.85
76553;BME280;65395;53.168;18.156;2023-11-19T10:46:22;100562.61;;;2.11;83.98
76553;BME280;65395;53.168;18.156;2023-11-19T10:48:50;100563.20;;;2.09;83.88
76553;BME280;65395;53.168;18.156;2023-11-19T10:51:19;100558.52;;;2.09;84.03
76553;BME280;65395;53.168;18.156;2023-11-19T10:53:51;100554.16;;;2.09;84.18
76553;BME280;65395;53.168;18.156;2023-11-19T10:56:20;100556.91;;;2.12;84.22
76553;BME280;65395;53.168;18.156;2023-11-19T10:58:50;100551.46;;;2.12;84.16
76553;BME280;65395;53.168;18.156;2023-11-19T11:01:20;100546.11;;;2.12;84.17
76553;BME280;65395;53.168;18.156;2023-11-19T11:03:50;100546.11;;;2.10;84.03
76553;BME280;65395;53.168;18.156;2023-11-19T11:06:18;100539.31;;;2.08;84.16
76553;BME280;65395;53.168;18.156;2023-11-19T11:08:46;100533.20;;;2.06;84.33
76553;BME280;65395;53.168;18.156;2023-11-19T11:11:15;100530.80;;;2.06;84.37
76553;BME280;65395;53.168;18.156;2023-11-19T11:13:44;100526.67;;;2.04;84.44
76553;BME280;65395;53.168;18.156;2023-11-19T11:16:12;100523.83;;;2.03;84.59
76553;BME280;65395;53.168;18.156;2023-11-19T11:18:40;100518.44;;;2.04;84.84
76553;BME280;65395;53.168;18.156;2023-11-19T11:21:11;100513.24;;;2.04;84.83
76553;BME280;65395;53.168;18.156;2023-11-19T11:26:50;100494.17;;;2.02;84.90
76553;BME280;65395;53.168;18.156;2023-11-19T11:32:28;100481.77;;;1.94;85.06
76553;BME280;65395;53.168;18.156;2023-11-19T11:35:16;100476.54;;;1.92;85.22
76553;BME280;65395;53.168;18.156;2023-11-19T11:37:50;100470.76;;;1.89;85.24
76553;BME280;65395;53.168;18.156;2023-11-19T11:40:19;100464.33;;;1.87;85.45
76553;BME280;65395;53.168;18.156;2023-11-19T11:42:46;100460.39;;;1.85;85.52
76553;BME280;65395;53.168;18.156;2023-11-19T11:45:14;100450.44;;;1.84;85.71
76553;BME280;65395;53.168;18.156;2023-11-19T11:48:06;100440.70;;;1.83;85.63
76553;BME280;65395;53.168;18.156;2023-11-19T11:50:35;100429.80;;;1.81;85.79
76553;BME280;65395;53.168;18.156;2023-11-19T11:53:13;100420.35;;;1.76;85.70
76553;BME280;65395;53.168;18.156;2023-11-19T11:55:53;100410.70;;;1.71;85.75
76553;BME280;65395;53.168;18.156;2023-11-19T11:58:28;100410.88;;;1.66;85.86
76553;BME280;65395;53.168;18.156;2023-11-19T12:00:58;100406.95;;;1.62;85.93
76553;BME280;65395;53.168;18.156;2023-11-19T12:03:28;100409.54;;;1.58;85.98
76553;BME280;65395;53.168;18.156;2023-11-19T12:05:55;100405.75;;;1.56;86.15
76553;BME280;65395;53.168;18.156;2023-11-19T12:08:26;100405.98;;;1.54;86.19
76553;BME280;65395;53.168;18.156;2023-11-19T12:10:56;100398.72;;;1.52;86.32
76553;BME280;65395;53.168;18.156;2023-11-19T12:13:47;100392.23;;;1.49;86.46
76553;BME280;65395;53.168;18.156;2023-11-19T12:16:16;100381.50;;;1.45;86.37
76553;BME280;65395;53.168;18.156;2023-11-19T12:18:42;100378.41;;;1.41;86.47
76553;BME280;65395;53.168;18.156;2023-11-19T12:21:09;100373.41;;;1.40;86.65
76553;BME280;65395;53.168;18.156;2023-11-19T12:23:44;100360.05;;;1.40;86.74
76553;BME280;65395;53.168;18.156;2023-11-19T12:26:30;100346.24;;;1.37;86.82
76553;BME280;65395;53.168;18.156;2023-11-19T12:28:59;100342.67;;;1.36;86.89
76553;BME280;65395;53.168;18.156;2023-11-19T12:31:26;100338.64;;;1.34;86.97
76553;BME280;65395;53.168;18.156;2023-11-19T12:33:53;100332.88;;;1.31;86.90
76553;BME280;65395;53.168;18.156;2023-11-19T12:36:20;100327.58;;;1.31;87.00
76553;BME280;65395;53.168;18.156;2023-11-19T12:38:47;100328.27;;;1.32;87.13
76553;BME280;65395;53.168;18.156;2023-11-19T12:41:15;100328.84;;;1.32;87.11
76553;BME280;65395;53.168;18.156;2023-11-19T12:43:46;100319.18;;;1.29;87.16
76553;BME280;65395;53.168;18.156;2023-11-19T12:46:18;100316.39;;;1.27;87.10
76553;BME280;65395;53.168;18.156;2023-11-19T12:48:47;100314.25;;;1.26;87.26
76553;BME280;65395;53.168;18.156;2023-11-19T12:51:15;100319.02;;;1.25;87.31
76553;BME280;65395;53.168;18.156;2023-11-19T12:53:52;100326.16;;;1.24;87.48
76553;BME280;65395;53.168;18.156;2023-11-19T12:56:24;100335.61;;;1.21;87.48